Time;durP1;ratioP1;P1;durP2;ratioP2;P2;SDS_P1;SDS_P2;PMS_P1;PMS_P2;Temp;Humidity;BMP_temperature;BMP_pressure;BME280_temperature;BME280_humidity;BME280_pressure;Samples;Min_cycle;Max_cycle;Signal;HPM_P1;HPM_P2
2022/06/03 00:00:22;;;;;;;9.32;6.97;;;10.60;99.90;;;;;;5012490;28;20050;-96
2022/06/03 00:03:23;;;;;;;7.28;6.38;;;10.60;99.90;;;;;;5016324;28;20045;-96
2022/06/03 00:06:11;;;;;;;8.40;6.28;;;10.60;99.90;;;;;;5011584;28;20053;-96
2022/06/03 00:08:45;;;;;;;8.73;6.22;;;10.70;99.90;;;;;;5010302;28;20050;-96
2022/06/03 00:11:32;;;;;;;9.05;6.88;;;10.60;99.90;;;;;;5006948;28;20045;-96
2022/06/03 00:14:26;;;;;;;8.38;6.25;;;10.60;99.90;;;;;;5006007;28;20052;-96
2022/06/03 00:17:10;;;;;;;8.52;6.10;;;10.70;99.90;;;;;;5020468;28;20037;-96
2022/06/03 00:20:02;;;;;;;8.45;5.60;;;10.60;99.90;;;;;;5003968;28;20473;-96
2022/06/03 00:22:50;;;;;;;6.60;5.40;;;10.60;99.90;;;;;;5003806;28;20060;-96
2022/06/03 00:25:46;;;;;;;6.28;4.93;;;10.30;99.90;;;;;;5005091;28;20037;-96
2022/06/03 00:28:31;;;;;;;6.97;5.30;;;10.30;99.90;;;;;;5016847;28;20076;-96
2022/06/03 00:31:15;;;;;;;6.35;5.50;;;10.10;99.90;;;;;;5008005;28;20084;-96
2022/06/03 00:33:52;;;;;;;5.35;4.85;;;10.00;99.90;;;;;;5005256;28;20049;-96
2022/06/03 00:36:48;;;;;;;8.30;5.35;;;10.00;99.90;;;;;;5003572;28;20049;-96
2022/06/03 00:39:41;;;;;;;7.03;5.40;;;9.90;99.90;;;;;;5002955;28;20563;-96
2022/06/03 00:42:28;;;;;;;7.70;6.20;;;9.90;99.90;;;;;;5003642;28;20045;-96
2022/06/03 00:45:32;;;;;;;7.03;6.07;;;9.70;99.90;;;;;;5003024;28;20519;-96
2022/06/03 00:47:58;;;;;;;6.85;5.80;;;9.60;99.90;;;;;;5003143;28;20060;-96
2022/06/03 00:50:51;;;;;;;7.78;5.60;;;9.50;99.90;;;;;;5018236;28;20064;-96
2022/06/03 00:53:39;;;;;;;5.45;4.60;;;9.40;99.90;;;;;;5038995;28;20041;-96
2022/06/03 00:56:36;;;;;;;5.35;4.85;;;9.30;99.90;;;;;;5052026;28;20083;-96
2022/06/03 00:59:18;;;;;;;7.43;5.90;;;9.40;99.90;;;;;;5057316;28;20526;-96
2022/06/03 01:02:19;;;;;;;6.93;6.22;;;9.60;99.90;;;;;;5025161;28;20045;-96
2022/06/03 01:05:03;;;;;;;7.40;6.05;;;9.70;99.90;;;;;;5003617;28;20049;-96
2022/06/03 01:07:40;;;;;;;6.13;5.43;;;9.70;99.90;;;;;;5023545;28;20128;-96
2022/06/03 01:10:31;;;;;;;6.18;4.93;;;9.60;99.90;;;;;;5024653;28;20037;-96
2022/06/03 01:13:34;;;;;;;6.38;5.60;;;9.60;99.90;;;;;;5039201;28;20052;-96
2022/06/03 01:16:12;;;;;;;8.68;5.63;;;9.60;99.90;;;;;;5042153;28;20518;-96
2022/06/03 01:18:50;;;;;;;10.23;6.25;;;9.70;99.90;;;;;;5027515;28;20056;-96
2022/06/03 01:21:38;;;;;;;6.90;6.13;;;9.70;99.90;;;;;;5026873;28;20132;-95
2022/06/03 01:24:40;;;;;;;5.57;4.88;;;9.60;99.90;;;;;;5042973;28;20048;-96
2022/06/03 01:27:32;;;;;;;4.07;3.50;;;9.50;99.90;;;;;;5026624;28;20053;-96
2022/06/03 01:30:24;;;;;;;3.47;3.13;;;9.40;99.90;;;;;;5042385;28;20090;-96
2022/06/03 01:32:58;;;;;;;5.95;3.75;;;9.30;99.90;;;;;;5027093;28;20056;-96
2022/06/03 01:35:33;;;;;;;;;;;9.30;99.90;;;;;;5027180;28;20091;-96
2022/06/03 01:38:07;;;;;;;5.53;4.93;;;9.50;99.90;;;;;;5029759;28;19924;-96
2022/06/03 01:40:40;;;;;;;10.32;6.68;;;9.50;99.90;;;;;;5026271;28;20322;-96
2022/06/03 01:43:06;;;;;;;7.03;5.60;;;9.70;99.90;;;;;;5026191;28;20055;-96
2022/06/03 01:46:09;;;;;;;8.63;5.82;;;9.90;99.90;;;;;;5026080;28;20127;-96
2022/06/03 01:48:56;;;;;;;10.50;6.57;;;10.00;99.90;;;;;;5043050;28;20057;-96
2022/06/03 01:51:41;;;;;;;9.73;5.65;;;10.10;99.90;;;;;;5026295;28;20523;-96
2022/06/03 01:55:07;;;;;;;5.68;5.05;;;10.00;99.90;;;;;;5042504;28;20045;-96
2022/06/03 01:57:42;;;;;;;3.50;2.65;;;10.00;99.90;;;;;;5001077;28;20058;-96
2022/06/03 02:00:29;;;;;;;3.63;3.10;;;9.60;99.90;;;;;;4985404;28;20049;-96
2022/06/03 02:03:01;;;;;;;2.20;2.00;;;9.30;99.90;;;;;;5015425;28;20045;-95
2022/06/03 02:05:41;;;;;;;2.50;2.30;;;9.10;99.90;;;;;;5030200;28;20041;-96
2022/06/03 02:08:41;;;;;;;3.05;2.67;;;8.80;99.90;;;;;;5029715;28;20080;-96
2022/06/03 02:11:18;;;;;;;4.47;3.28;;;8.80;99.90;;;;;;5030552;28;20135;-96
2022/06/03 02:14:17;;;;;;;5.13;3.58;;;8.80;99.90;;;;;;5030274;28;20136;-95
2022/06/03 02:16:49;;;;;;;4.30;3.80;;;8.90;99.90;;;;;;5027650;28;20412;-95
2022/06/03 02:19:36;;;;;;;4.88;4.22;;;9.00;99.90;;;;;;5028829;28;20052;-96
2022/06/03 02:22:42;;;;;;;6.30;5.13;;;9.20;99.90;;;;;;5025723;28;20051;-96
2022/06/03 02:25:27;;;;;;;6.30;5.00;;;9.60;99.90;;;;;;5031520;28;20044;-95
2022/06/03 02:28:18;;;;;;;6.57;4.80;;;9.60;99.90;;;;;;5042896;28;20059;-94
2022/06/03 02:31:11;;;;;;;5.95;5.05;;;9.90;99.90;;;;;;5025880;28;20049;-95
2022/06/03 02:33:41;;;;;;;6.05;5.28;;;10.10;99.90;;;;;;5026033;28;20098;-95
2022/06/03 02:36:25;;;;;;;8.63;5.93;;;10.10;99.90;;;;;;5025875;28;20105;-96
2022/06/03 02:39:13;;;;;;;8.57;5.60;;;10.20;99.90;;;;;;5042253;28;20049;-95
2022/06/03 02:42:17;;;;;;;6.80;5.40;;;10.30;99.90;;;;;;5024736;28;20287;-96
2022/06/03 02:45:06;;;;;;;6.60;5.40;;;10.30;99.90;;;;;;4965479;28;20057;-95
2022/06/03 02:48:00;;;;;;;6.53;5.28;;;10.20;99.90;;;;;;5023269;28;20049;-95
2022/06/03 02:50:32;;;;;;;8.68;5.35;;;10.20;99.90;;;;;;5028560;28;20053;-96
2022/06/03 02:53:10;;;;;;;9.65;5.90;;;10.20;99.90;;;;;;5034912;28;20056;-95
2022/06/03 02:55:45;;;;;;;8.18;5.85;;;10.30;99.90;;;;;;5024437;28;20053;-95
2022/06/03 02:58:30;;;;;;;;;;;10.20;99.90;;;;;;5026043;28;20056;-96
2022/06/03 03:01:07;;;;;;;6.13;5.38;;;10.50;99.90;;;;;;5037080;28;19939;-96
2022/06/03 03:04:04;;;;;;;6.32;5.68;;;10.30;99.90;;;;;;5036782;28;20067;-96
2022/06/03 03:06:50;;;;;;;9.75;5.72;;;10.30;99.90;;;;;;5026119;28;20025;-96
2022/06/03 03:09:48;;;;;;;8.05;5.88;;;10.40;99.90;;;;;;5027128;28;20052;-95
2022/06/03 03:12:33;;;;;;;6.97;6.25;;;10.40;99.90;;;;;;5026368;28;20423;-95
2022/06/03 03:15:24;;;;;;;7.23;6.53;;;10.30;99.90;;;;;;5042649;28;20055;-95
2022/06/03 03:18:05;;;;;;;7.82;6.25;;;10.40;99.90;;;;;;5024548;28;20682;-96
2022/06/03 03:20:59;;;;;;;9.00;6.45;;;10.30;99.90;;;;;;5024729;28;20048;-96
2022/06/03 03:24:04;;;;;;;8.43;6.80;;;10.40;99.90;;;;;;5025394;28;20049;-96
2022/06/03 03:27:13;;;;;;;8.13;6.95;;;10.40;99.90;;;;;;5042212;28;20045;-96
2022/06/03 03:29:43;;;;;;;10.63;7.57;;;10.40;99.90;;;;;;5042225;28;20132;-95
2022/06/03 03:32:09;;;;;;;11.50;7.00;;;10.40;99.90;;;;;;5042973;28;20040;-95
2022/06/03 03:35:11;;;;;;;8.60;6.75;;;10.40;99.90;;;;;;5025995;28;20049;-95
2022/06/03 03:37:55;;;;;;;11.80;7.80;;;10.50;99.90;;;;;;5023836;28;20048;-95
2022/06/03 03:40:49;;;;;;;9.45;7.65;;;10.60;99.90;;;;;;5031589;28;20088;-96
2022/06/03 03:43:57;;;;;;;9.40;7.63;;;10.50;99.90;;;;;;5030032;28;20041;-93
2022/06/03 03:47:01;;;;;;;9.27;7.93;;;10.50;99.90;;;;;;5044575;28;20037;-95
2022/06/03 03:49:49;;;;;;;10.13;7.88;;;10.50;99.90;;;;;;5025001;28;20048;-93
2022/06/03 03:52:35;;;;;;;11.13;7.63;;;10.60;99.90;;;;;;5025998;28;20128;-94
2022/06/03 03:55:38;;;;;;;11.25;8.75;;;10.60;99.90;;;;;;5033443;28;20060;-95
2022/06/03 03:58:12;;;;;;;12.30;9.52;;;10.70;99.90;;;;;;5048439;28;20079;-95
2022/06/03 04:01:15;;;;;;;12.55;11.00;;;10.70;99.90;;;;;;5039440;28;20048;-95
2022/06/03 04:03:59;;;;;;;13.60;11.43;;;10.80;99.90;;;;;;5043505;28;20063;-95
2022/06/03 04:06:53;;;;;;;12.10;10.60;;;10.80;99.90;;;;;;5027557;28;20511;-94
2022/06/03 04:09:49;;;;;;;12.27;10.38;;;10.80;99.90;;;;;;5023141;28;20052;-94
2022/06/03 04:12:18;;;;;;;;;;;10.90;99.90;;;;;;5026668;28;20044;-94
2022/06/03 04:14:48;;;;;;;11.23;10.13;;;10.90;99.90;;;;;;5027392;28;19917;-94
2022/06/03 04:17:59;;;;;;;12.07;10.77;;;10.90;99.90;;;;;;5022699;28;20377;-86
2022/06/03 04:20:38;;;;;;;14.30;11.05;;;11.00;99.90;;;;;;5038109;28;20396;-93
2022/06/03 04:23:30;;;;;;;12.88;10.85;;;11.10;99.90;;;;;;5021224;28;20114;-94
2022/06/03 04:26:19;;;;;;;13.38;11.93;;;11.10;99.90;;;;;;5025196;28;20495;-94
2022/06/03 04:28:51;;;;;;;14.73;11.32;;;11.10;99.90;;;;;;5023773;28;20045;-85
2022/06/03 04:31:34;;;;;;;14.30;12.05;;;11.20;99.90;;;;;;5023568;28;20060;-85
2022/06/03 04:34:39;;;;;;;13.07;11.77;;;11.10;99.90;;;;;;5018661;28;20037;-86
2022/06/03 04:37:56;;;;;;;15.25;11.10;;;11.20;99.90;;;;;;5030930;28;20044;-85
2022/06/03 04:40:59;;;;;;;12.25;11.05;;;11.40;99.90;;;;;;5016684;28;20087;-85
2022/06/03 04:43:49;;;;;;;11.35;10.25;;;11.30;99.90;;;;;;5033811;28;20384;-86
2022/06/03 04:46:38;;;;;;;13.30;11.48;;;11.50;99.90;;;;;;5017592;28;20045;-85
2022/06/03 04:49:25;;;;;;;12.68;10.70;;;11.40;99.90;;;;;;5033607;28;20129;-85
2022/06/03 04:52:00;;;;;;;13.52;9.80;;;11.60;99.90;;;;;;5023600;28;20052;-85
2022/06/03 04:54:48;;;;;;;11.43;9.57;;;11.70;99.90;;;;;;5024041;28;20044;-86
2022/06/03 04:57:23;;;;;;;9.65;8.57;;;11.70;99.90;;;;;;5032570;28;20072;-85
2022/06/03 05:00:14;;;;;;;9.82;8.80;;;11.70;99.90;;;;;;5028113;28;20040;-85
2022/06/03 05:03:02;;;;;;;9.60;8.15;;;11.70;99.90;;;;;;5037972;28;20494;-86
2022/06/03 05:06:06;;;;;;;11.65;7.95;;;11.70;99.90;;;;;;5021445;28;20045;-85
2022/06/03 05:08:35;;;;;;;11.93;7.60;;;11.80;99.90;;;;;;5021908;28;20041;-86
2022/06/03 05:11:00;;;;;;;9.70;7.25;;;11.80;99.90;;;;;;5020953;28;20045;-86
2022/06/03 05:13:32;;;;;;;8.60;6.75;;;11.90;99.90;;;;;;5022331;28;20048;-85
2022/06/03 05:16:37;;;;;;;11.50;5.95;;;12.00;99.90;;;;;;5021258;28;20047;-86
2022/06/03 05:19:19;;;;;;;7.88;6.30;;;12.00;99.90;;;;;;5039634;28;20049;-86
2022/06/03 05:22:22;;;;;;;9.85;6.60;;;12.00;99.90;;;;;;5022825;28;20103;-86
2022/06/03 05:25:19;;;;;;;9.57;6.22;;;12.30;99.90;;;;;;5038034;28;20132;-86
2022/06/03 05:28:03;;;;;;;9.15;6.28;;;12.20;99.90;;;;;;5030813;28;20052;-86
2022/06/03 05:31:03;;;;;;;7.72;6.68;;;12.30;99.90;;;;;;5021982;28;20048;-86
2022/06/03 05:33:31;;;;;;;9.88;5.93;;;12.50;99.90;;;;;;5022317;28;20041;-86
2022/06/03 05:36:35;;;;;;;10.40;6.15;;;12.40;99.90;;;;;;5021177;28;20127;-86
2022/06/03 05:39:31;;;;;;;7.25;6.40;;;12.50;99.90;;;;;;5038093;28;20078;-86
2022/06/03 05:45:15;;;;;;;8.82;6.70;;;12.70;99.90;;;;;;5036961;28;20444;-86
2022/06/03 05:47:49;;;;;;;8.63;6.93;;;12.50;99.90;;;;;;5038030;28;20037;-86
2022/06/03 05:50:24;;;;;;;8.37;5.87;;;12.60;99.90;;;;;;5029086;28;20140;-87
2022/06/03 05:52:59;;;;;;;8.80;6.47;;;12.70;99.90;;;;;;5027109;28;20045;-85
2022/06/03 05:55:31;;;;;;;;;;;12.60;99.90;;;;;;5022964;28;20134;-86
2022/06/03 05:58:07;;;;;;;9.80;7.38;;;12.80;99.90;;;;;;5020510;28;19917;-87
2022/06/03 06:01:02;;;;;;;7.32;5.35;;;12.60;99.90;;;;;;5019466;28;20053;-86
2022/06/03 06:03:39;;;;;;;7.72;6.05;;;12.70;99.90;;;;;;5042526;28;20044;-85
2022/06/03 06:06:20;;;;;;;12.90;6.10;;;12.10;99.90;;;;;;5025332;28;20144;-86
2022/06/03 06:08:55;;;;;;;8.00;5.40;;;12.80;99.90;;;;;;5019045;28;20083;-85
2022/06/03 06:11:57;;;;;;;7.15;6.00;;;13.10;99.90;;;;;;5024448;28;20068;-87
2022/06/03 06:14:55;;;;;;;7.35;5.50;;;12.90;99.90;;;;;;5021696;28;20041;-86
2022/06/03 06:17:55;;;;;;;4.60;4.18;;;12.90;99.90;;;;;;5010326;28;20125;-88
2022/06/03 06:20:40;;;;;;;5.55;4.40;;;13.00;99.90;;;;;;5019457;28;20084;-87
2022/06/03 06:23:36;;;;;;;7.18;4.50;;;13.10;99.90;;;;;;5019607;28;20037;-87
2022/06/03 06:26:32;;;;;;;6.93;4.80;;;13.00;99.90;;;;;;5020609;28;20465;-87
2022/06/03 06:29:44;;;;;;;6.57;5.00;;;13.40;99.90;;;;;;5019842;28;20385;-86
2022/06/03 06:32:19;;;;;;;5.50;4.05;;;13.30;99.90;;;;;;5036260;28;20041;-87
2022/06/03 06:34:54;;;;;;;4.38;3.90;;;13.50;99.90;;;;;;5021163;28;20504;-87
2022/06/03 06:37:57;;;;;;;4.00;3.60;;;13.70;99.90;;;;;;5021444;28;20044;-87
2022/06/03 06:40:58;;;;;;;8.73;4.00;;;13.80;99.90;;;;;;5024670;28;20404;-87
2022/06/03 06:43:45;;;;;;;4.20;3.60;;;13.70;99.90;;;;;;5022736;28;20377;-87
2022/06/03 06:46:26;;;;;;;4.70;3.83;;;14.10;99.90;;;;;;5020929;28;20045;-87
2022/06/03 06:49:07;;;;;;;5.65;3.15;;;14.30;99.90;;;;;;5020335;28;20110;-87
2022/06/03 06:51:41;;;;;;;3.75;3.22;;;14.30;99.90;;;;;;5023417;28;20041;-87
2022/06/03 06:54:11;;;;;;;4.00;3.25;;;14.70;99.90;;;;;;5020732;28;20047;-86
2022/06/03 06:56:57;;;;;;;4.95;3.53;;;15.00;99.90;;;;;;5021903;28;20056;-87
2022/06/03 06:59:29;;;;;;;7.10;2.85;;;15.10;99.90;;;;;;5020754;28;20570;-86
2022/06/03 07:02:06;;;;;;;4.15;2.83;;;15.00;99.90;;;;;;5020502;28;20049;-86
2022/06/03 07:04:41;;;;;;;5.90;2.50;;;15.10;99.90;;;;;;5020418;28;20118;-87
2022/06/03 07:07:51;;;;;;;2.58;1.95;;;15.20;99.90;;;;;;5026247;28;20126;-89
2022/06/03 07:10:37;;;;;;;3.15;2.10;;;15.00;99.90;;;;;;4968461;28;20050;-94
2022/06/03 07:13:22;;;;;;;2.17;1.73;;;15.30;99.90;;;;;;5019802;28;20412;-86
2022/06/03 07:16:06;;;;;;;;;;;15.60;99.90;;;;;;5028793;28;20041;-90
2022/06/03 07:21:51;;;;;;;;;;;15.80;99.90;;;;;;5037195;28;20049;-86
2022/06/03 07:24:32;;;;;;;2.78;1.50;;;15.80;99.90;;;;;;5021099;28;19983;-86
2022/06/03 07:27:07;;;;;;;2.22;1.60;;;16.00;99.90;;;;;;5021132;28;20056;-86
2022/06/03 07:29:56;;;;;;;3.08;1.60;;;16.00;99.90;;;;;;5020325;28;20080;-86
2022/06/03 07:32:28;;;;;;;2.55;1.83;;;16.00;99.90;;;;;;5024251;28;20053;-95
2022/06/03 07:35:01;;;;;;;3.10;1.80;;;15.90;99.90;;;;;;5026356;28;20045;-93
2022/06/03 07:37:56;;;;;;;5.72;2.08;;;16.00;99.90;;;;;;5026240;28;20084;-94
2022/06/03 07:40:29;;;;;;;3.17;1.80;;;15.90;99.90;;;;;;5028121;28;20411;-94
2022/06/03 07:43:20;;;;;;;1.77;1.63;;;16.00;99.90;;;;;;5024890;28;20083;-94
2022/06/03 07:46:11;;;;;;;2.08;1.73;;;16.10;99.90;;;;;;5029698;28;20403;-94
2022/06/03 07:48:38;;;;;;;2.22;1.88;;;16.20;99.90;;;;;;5042073;28;20045;-92
2022/06/03 07:51:17;;;;;;;2.28;1.60;;;16.10;99.90;;;;;;4992618;28;20101;-94
2022/06/03 07:53:50;;;;;;;1.70;1.50;;;16.20;99.90;;;;;;5010110;28;20045;-92
2022/06/03 07:56:26;;;;;;;4.95;1.80;;;16.50;99.90;;;;;;5011591;28;20055;-95
2022/06/03 07:59:05;;;;;;;2.92;1.73;;;16.40;99.90;;;;;;5016142;28;20033;-94
2022/06/03 08:01:38;;;;;;;2.05;1.83;;;16.60;99.90;;;;;;5010045;28;20057;-93
2022/06/03 08:04:12;;;;;;;3.60;1.60;;;16.50;99.90;;;;;;5006938;28;20054;-94
2022/06/03 08:12:24;;;;;;;2.33;1.90;;;16.70;99.90;;;;;;5023245;28;20049;-91
2022/06/03 08:14:53;;;;;;;1.80;1.40;;;16.70;99.90;;;;;;4993334;28;20053;-94
2022/06/03 08:17:20;;;;;;;3.05;1.50;;;17.00;99.90;;;;;;4992671;28;20088;-93
2022/06/03 08:19:52;;;;;;;2.22;1.42;;;17.10;99.90;;;;;;4994341;28;20045;-93
2022/06/03 08:22:24;;;;;;;3.83;1.40;;;17.10;99.90;;;;;;4993447;28;20057;-94
2022/06/03 08:24:55;;;;;;;2.08;1.40;;;17.10;99.90;;;;;;5010963;28;20104;-93
2022/06/03 08:27:32;;;;;;;2.08;1.52;;;17.20;99.90;;;;;;5011958;28;20042;-93
2022/06/03 08:30:11;;;;;;;2.17;1.48;;;17.30;99.90;;;;;;5013208;28;20045;-93
2022/06/03 08:32:46;;;;;;;2.08;1.25;;;17.40;99.90;;;;;;5013737;28;20049;-94
2022/06/03 08:35:36;;;;;;;2.28;1.55;;;17.20;99.90;;;;;;5014341;28;20052;-93
2022/06/03 08:38:13;;;;;;;3.13;1.35;;;17.40;99.90;;;;;;5027500;28;20165;-92
2022/06/03 08:40:58;;;;;;;4.50;1.80;;;17.60;99.90;;;;;;5018717;28;20469;-93
2022/06/03 08:43:33;;;;;;;4.15;1.30;;;17.70;99.90;;;;;;5036477;28;20057;-94
2022/06/03 08:46:11;;;;;;;;;;;17.80;99.90;;;;;;5014398;28;20050;-95
2022/06/03 08:48:47;;;;;;;1.90;1.35;;;17.90;99.90;;;;;;5014749;28;19917;-93
2022/06/03 08:51:35;;;;;;;1.73;1.30;;;18.00;99.90;;;;;;5031419;28;20049;-94
2022/06/03 08:54:10;;;;;;;2.13;1.30;;;18.40;99.90;;;;;;5032442;28;20133;-94
2022/06/03 08:56:40;;;;;;;3.60;1.80;;;18.50;99.90;;;;;;5028427;28;20233;-92
2022/06/03 08:59:11;;;;;;;4.13;1.80;;;18.20;99.90;;;;;;5012985;28;20045;-91
2022/06/03 09:01:57;;;;;;;3.25;1.80;;;18.00;99.90;;;;;;5016990;28;20052;-92
2022/06/03 09:04:46;;;;;;;3.67;1.90;;;18.20;99.90;;;;;;5032678;28;20113;-92
2022/06/03 09:07:45;;;;;;;2.05;1.85;;;18.60;99.90;;;;;;5004795;28;20028;-93
2022/06/03 09:10:34;;;;;;;3.08;2.13;;;18.50;99.90;;;;;;5021642;28;20045;-93
2022/06/03 09:13:11;;;;;;;2.95;1.63;;;18.90;99.90;;;;;;5030068;28;20052;-92
2022/06/03 09:15:43;;;;;;;3.22;1.80;;;19.10;99.90;;;;;;5032718;28;20045;-91
2022/06/03 09:18:34;;;;;;;2.13;1.60;;;19.00;99.90;;;;;;5033824;28;20735;-93
2022/06/03 09:21:03;;;;;;;2.45;1.42;;;19.60;99.90;;;;;;5034257;28;20057;-93
2022/06/03 09:23:36;;;;;;;3.17;1.60;;;19.20;99.90;;;;;;5030042;28;20055;-94
2022/06/03 09:26:02;;;;;;;3.22;1.60;;;19.70;99.90;;;;;;5032030;28;20087;-93
2022/06/03 09:28:36;;;;;;;2.25;1.65;;;20.00;99.90;;;;;;5033666;28;20048;-91
2022/06/03 09:31:08;;;;;;;2.20;1.67;;;20.00;99.90;;;;;;5012053;28;20084;-91
2022/06/03 09:33:38;;;;;;;4.28;1.80;;;19.90;99.90;;;;;;5010435;28;20053;-94
2022/06/03 09:36:13;;;;;;;1.95;1.60;;;19.30;99.90;;;;;;4978449;28;20136;-92
2022/06/03 09:38:45;;;;;;;2.63;2.00;;;19.60;99.90;;;;;;5013226;28;20180;-91
2022/06/03 09:41:12;;;;;;;2.15;1.50;;;19.90;99.90;;;;;;5014749;28;20053;-94
2022/06/03 09:43:42;;;;;;;2.13;1.50;;;20.30;99.90;;;;;;5012183;28;20135;-93
2022/06/03 09:46:14;;;;;;;2.65;2.05;;;20.70;99.90;;;;;;5011217;28;20504;-93
2022/06/03 09:48:42;;;;;;;3.80;1.50;;;20.50;99.90;;;;;;5012392;28;20050;-94
2022/06/03 09:51:55;;;;;;;2.97;1.85;;;20.30;99.90;;;;;;5028301;28;20109;-93
2022/06/03 09:54:32;;;;;;;2.70;1.77;;;20.40;99.90;;;;;;5030618;28;20104;-93
2022/06/03 09:57:05;;;;;;;2.75;1.52;;;20.70;99.90;;;;;;5011205;28;20053;-93
2022/06/03 09:59:37;;;;;;;2.40;1.83;;;20.90;99.90;;;;;;5023845;28;20048;-95
2022/06/03 10:02:05;;;;;;;2.10;1.60;;;20.10;99.90;;;;;;5011916;28;20060;-93
2022/06/03 10:04:31;;;;;;;2.13;1.70;;;20.80;99.90;;;;;;5006943;28;20065;-93
2022/06/03 10:07:00;;;;;;;2.40;1.40;;;20.00;99.90;;;;;;5014187;28;20045;-94
2022/06/03 10:18:05;;;;;;;3.15;1.63;;;21.60;99.90;;;;;;5043327;28;20096;-96
2022/06/03 10:20:34;;;;;;;2.65;1.45;;;21.00;99.90;;;;;;5015716;28;20029;-95
2022/06/03 10:23:03;;;;;;;2.15;1.67;;;21.40;99.90;;;;;;5014203;28;20080;-94
2022/06/03 10:25:32;;;;;;;2.42;1.65;;;21.00;99.90;;;;;;5017169;28;20054;-95
2022/06/03 10:28:09;;;;;;;2.05;1.80;;;21.30;99.90;;;;;;5008352;28;20128;-94
2022/06/03 10:30:42;;;;;;;2.80;1.90;;;21.90;96.30;;;;;;5007105;28;20069;-95
2022/06/03 10:33:20;;;;;;;3.95;1.85;;;21.10;99.70;;;;;;5006082;28;20057;-96
2022/06/03 10:35:50;;;;;;;3.13;1.70;;;21.00;99.90;;;;;;5008929;28;20115;-90
2022/06/03 10:38:19;;;;;;;2.13;1.80;;;20.90;96.70;;;;;;5009967;28;20041;-93
2022/06/03 10:40:52;;;;;;;3.40;1.80;;;20.70;98.70;;;;;;5005410;28;20112;-93
2022/06/03 10:43:31;;;;;;;3.63;2.03;;;21.30;98.00;;;;;;5005805;28;20059;-95
2022/06/03 10:46:09;;;;;;;4.07;2.42;;;21.10;98.90;;;;;;5006501;28;20140;-94
2022/06/03 10:48:35;;;;;;;5.03;1.88;;;21.30;95.40;;;;;;5004815;28;20045;-96
2022/06/03 10:51:18;;;;;;;2.00;1.70;;;20.80;97.20;;;;;;4990150;28;20048;-94
2022/06/03 11:02:38;;;;;;;2.90;1.52;;;21.80;90.80;;;;;;5046277;28;20072;-93
2022/06/03 11:05:19;;;;;;;2.13;1.58;;;21.90;79.40;;;;;;5010618;28;20047;-93
2022/06/03 11:07:58;;;;;;;2.40;1.50;;;21.20;75.80;;;;;;5026486;28;20080;-93
2022/06/03 11:10:32;;;;;;;2.03;1.40;;;21.10;82.00;;;;;;5028864;28;20520;-91
2022/06/03 11:13:05;;;;;;;2.45;1.90;;;20.80;82.80;;;;;;5028665;28;20068;-93
2022/06/03 11:15:40;;;;;;;1.85;1.50;;;20.90;76.10;;;;;;5029931;28;20056;-93
2022/06/03 11:18:19;;;;;;;1.63;1.40;;;21.30;82.70;;;;;;5027220;28;20075;-94
2022/06/03 11:20:47;;;;;;;1.70;1.30;;;21.40;47.40;;;;;;5050211;28;20056;-95
2022/06/03 11:23:16;;;;;;;2.95;1.40;;;22.00;52.80;;;;;;5032909;28;20055;-93
2022/06/03 11:26:02;;;;;;;1.60;1.50;;;22.30;52.60;;;;;;5008616;28;20049;-94
2022/06/03 11:28:39;;;;;;;3.08;1.58;;;22.70;44.70;;;;;;5023317;28;20045;-92
2022/06/03 11:31:25;;;;;;;1.65;1.35;;;22.80;25.80;;;;;;5035973;28;20067;-95
2022/06/03 11:34:01;;;;;;;2.03;1.30;;;22.80;1.00;;;;;;5040210;28;20045;-91
2022/06/03 11:36:27;;;;;;;1.30;1.10;;;22.80;5.70;;;;;;5043945;28;20075;-92
2022/06/03 11:39:11;;;;;;;2.25;1.60;;;22.00;13.50;;;;;;5043718;28;20041;-93
2022/06/03 11:42:09;;;;;;;2.17;1.27;;;21.70;19.50;;;;;;5043802;28;20036;-93
2022/06/03 11:44:57;;;;;;;1.80;1.50;;;22.60;1.00;;;;;;5033704;28;20488;-93
2022/06/03 11:47:34;;;;;;;2.55;1.30;;;23.10;1.00;;;;;;5031420;28;20504;-94
2022/06/03 11:50:03;;;;;;;2.88;1.60;;;22.70;1.00;;;;;;5011109;28;20068;-93
2022/06/03 11:52:29;;;;;;;2.38;1.20;;;22.00;1.00;;;;;;5024879;28;20080;-90
2022/06/03 11:54:55;;;;;;;1.60;1.50;;;21.80;1.20;;;;;;4992749;28;20049;-94
2022/06/03 11:57:22;;;;;;;1.95;1.30;;;21.10;1.00;;;;;;4999309;28;20044;-95
2022/06/03 11:59:57;;;;;;;2.22;1.33;;;22.50;27.30;;;;;;5015214;28;20611;-94
2022/06/03 12:02:59;;;;;;;2.15;1.40;;;21.50;1.00;;;;;;5029340;28;20049;-94
2022/06/03 12:05:40;;;;;;;2.00;1.30;;;22.50;1.00;;;;;;5010053;28;20051;-93
2022/06/03 12:08:21;;;;;;;1.67;1.30;;;22.60;1.00;;;;;;5033406;28;20049;-94
2022/06/03 12:11:03;;;;;;;2.88;1.40;;;22.90;1.00;;;;;;5032091;28;20049;-93
2022/06/03 12:13:36;;;;;;;3.55;1.23;;;23.20;1.00;;;;;;5031114;28;20054;-93
2022/06/03 12:16:10;;;;;;;1.40;1.10;;;23.00;1.00;;;;;;5016753;28;20057;-93
2022/06/03 12:18:39;;;;;;;2.28;1.10;;;22.40;1.00;;;;;;5032293;28;20500;-93
2022/06/03 12:21:30;;;;;;;2.72;1.55;;;21.90;1.00;;;;;;5032697;28;20087;-95
2022/06/03 12:24:16;;;;;;;2.17;1.35;;;21.80;1.00;;;;;;5033116;28;20132;-92
2022/06/03 12:26:50;;;;;;;2.00;1.38;;;22.00;1.00;;;;;;5030779;28;20140;-95
2022/06/03 12:29:30;;;;;;;1.60;1.40;;;21.90;1.00;;;;;;5020559;28;20048;-94
2022/06/03 12:32:16;;;;;;;3.00;1.60;;;21.90;1.00;;;;;;5052582;28;20041;-93
2022/06/03 12:34:43;;;;;;;2.10;1.60;;;21.90;1.00;;;;;;5034538;28;20052;-95
2022/06/03 12:37:35;;;;;;;1.58;1.30;;;21.70;1.00;;;;;;5031810;28;20053;-96
2022/06/03 12:40:34;;;;;;;2.50;1.33;;;22.50;1.20;;;;;;5045223;28;20041;-95
2022/06/03 12:43:00;;;;;;;2.22;1.80;;;23.10;8.20;;;;;;5018396;28;20049;-91
2022/06/03 12:45:33;;;;;;;4.00;1.70;;;22.10;9.80;;;;;;4998244;28;20053;-95
2022/06/03 12:47:59;;;;;;;1.30;1.20;;;21.80;9.80;;;;;;5029052;28;20049;-93
2022/06/03 12:50:35;;;;;;;2.17;1.35;;;21.60;35.00;;;;;;5011816;28;20560;-93
2022/06/03 12:53:18;;;;;;;4.00;1.70;;;21.80;57.60;;;;;;5013915;28;20041;-93
2022/06/03 12:55:51;;;;;;;2.90;1.70;;;21.90;59.20;;;;;;5014894;28;20046;-94
2022/06/03 12:58:29;;;;;;;3.33;1.42;;;22.20;72.80;;;;;;5013180;28;20049;-93
2022/06/03 13:01:00;;;;;;;1.83;1.20;;;21.80;60.00;;;;;;5014048;28;20052;-93
2022/06/03 13:03:26;;;;;;;2.45;1.45;;;22.10;78.10;;;;;;4999291;28;20053;-96
2022/06/03 13:05:54;;;;;;;1.80;1.30;;;21.80;75.50;;;;;;5031156;28;20509;-92
2022/06/03 13:08:29;;;;;;;2.08;1.35;;;22.00;75.70;;;;;;5009572;28;20477;-93
2022/06/03 13:11:24;;;;;;;2.63;1.40;;;21.60;79.40;;;;;;5014693;28;20042;-93
2022/06/03 13:14:18;;;;;;;3.20;1.58;;;21.00;75.70;;;;;;5019257;28;20049;-94
2022/06/03 13:16:47;;;;;;;2.20;1.42;;;20.60;91.60;;;;;;5017406;28;20049;-94
2022/06/03 13:19:17;;;;;;;2.85;1.40;;;21.40;88.30;;;;;;5014213;28;20041;-95
2022/06/03 13:21:59;;;;;;;1.55;1.15;;;21.50;90.00;;;;;;5014327;28;20041;-92
2022/06/03 13:24:28;;;;;;;2.35;1.30;;;21.80;81.50;;;;;;5014312;28;20109;-95
2022/06/03 13:27:29;;;;;;;1.77;1.33;;;21.90;75.80;;;;;;5015456;28;20140;-95
2022/06/03 13:30:00;;;;;;;2.72;1.20;;;21.50;78.80;;;;;;5014039;28;20046;-93
2022/06/03 13:32:35;;;;;;;1.75;1.08;;;21.70;67.10;;;;;;5027957;28;20045;-92
2022/06/03 13:35:22;;;;;;;1.23;1.08;;;21.20;56.60;;;;;;5018708;28;20050;-92
2022/06/03 13:37:49;;;;;;;1.40;1.10;;;21.40;72.20;;;;;;5019470;28;20076;-95
2022/06/03 13:40:30;;;;;;;3.53;1.13;;;21.50;69.70;;;;;;5023545;28;20041;-92
2022/06/03 13:43:19;;;;;;;1.52;1.00;;;21.20;56.90;;;;;;5018739;28;20053;-94
2022/06/03 13:45:56;;;;;;;2.92;1.10;;;20.80;68.70;;;;;;5024746;28;20050;-94
2022/06/03 13:48:33;;;;;;;2.00;1.13;;;21.30;64.00;;;;;;5036391;28;20037;-92
2022/06/03 13:51:27;;;;;;;3.22;1.20;;;22.00;65.50;;;;;;5003533;28;20057;-95
2022/06/03 13:53:59;;;;;;;2.22;1.00;;;21.80;51.90;;;;;;4997507;28;20113;-89
2022/06/03 13:56:31;;;;;;;2.55;1.20;;;21.40;41.70;;;;;;4997461;28;20050;-92
2022/06/03 13:59:01;;;;;;;1.67;1.10;;;21.40;60.60;;;;;;4993566;28;20121;-90
2022/06/03 14:01:29;;;;;;;1.95;1.10;;;20.90;42.90;;;;;;4994052;28;20096;-91
2022/06/03 14:03:59;;;;;;;1.65;0.88;;;20.70;52.50;;;;;;4994394;28;20073;-91
2022/06/03 14:06:39;;;;;;;2.95;1.30;;;20.60;32.50;;;;;;4993212;28;20564;-91
2022/06/03 14:09:33;;;;;;;2.95;1.00;;;21.10;49.10;;;;;;5010159;28;20109;-94
2022/06/03 14:12:20;;;;;;;3.38;1.02;;;21.40;46.90;;;;;;4990656;28;20049;-94
2022/06/03 14:15:07;;;;;;;0.95;0.80;;;20.90;41.10;;;;;;4991100;28;20089;-95
2022/06/03 14:17:45;;;;;;;1.92;1.00;;;21.30;16.50;;;;;;5020875;28;20053;-93
2022/06/03 14:20:22;;;;;;;3.30;1.23;;;21.00;41.30;;;;;;5010338;28;20048;-92
2022/06/03 14:23:07;;;;;;;1.95;1.00;;;21.40;49.60;;;;;;5013734;28;20044;-91
2022/06/03 14:25:51;;;;;;;1.85;1.00;;;21.70;45.20;;;;;;5011188;28;20089;-93
2022/06/03 14:28:32;;;;;;;2.53;1.20;;;20.90;17.60;;;;;;5009896;28;20042;-91
2022/06/03 14:31:41;;;;;;;2.75;1.25;;;20.70;53.70;;;;;;5009581;28;20041;-93
2022/06/03 14:34:28;;;;;;;2.38;1.10;;;20.50;80.70;;;;;;4979718;28;20052;-94